createdAt,value
2023-03-18T00:04:14.249Z,1.70
2023-03-18T00:09:29.773Z,1.70
2023-03-18T00:14:46.709Z,1.80
2023-03-18T00:20:07.074Z,1.80
2023-03-18T00:25:23.110Z,1.80
2023-03-18T00:30:40.404Z,1.70
2023-03-18T00:35:56.227Z,1.70
2023-03-18T00:41:16.910Z,1.60
2023-03-18T00:46:36.472Z,1.40
2023-03-18T00:51:52.221Z,1.40
2023-03-18T00:57:08.117Z,1.30
2023-03-18T01:02:25.261Z,1.30
2023-03-18T01:07:41.725Z,1.40
2023-03-18T01:12:58.907Z,1.40
2023-03-18T01:18:15.523Z,1.40
2023-03-18T01:23:31.898Z,1.20
2023-03-18T01:28:48.381Z,1.20
2023-03-18T01:34:04.279Z,1.20
2023-03-18T01:39:20.978Z,1.20
2023-03-18T01:44:37.685Z,1.10
2023-03-18T01:49:53.399Z,1.10
2023-03-18T01:55:20.365Z,0.90
2023-03-18T02:00:41.871Z,1.10
2023-03-18T02:05:58.037Z,1.00
2023-03-18T02:11:14.566Z,0.90
2023-03-18T02:17:13.531Z,0.70
2023-03-18T02:22:34.355Z,0.80
2023-03-18T02:27:56.448Z,0.80
2023-03-18T02:33:16.140Z,0.70
2023-03-18T02:38:32.770Z,0.70
2023-03-18T02:43:49.797Z,0.70
2023-03-18T02:49:08.051Z,0.80
2023-03-18T02:54:27.810Z,1.00
2023-03-18T02:59:43.637Z,1.00
2023-03-18T03:05:00.812Z,0.80
2023-03-18T03:10:17.128Z,0.60
2023-03-18T03:15:33.254Z,0.60
2023-03-18T03:20:50.374Z,0.40
2023-03-18T03:26:07.316Z,0.40
2023-03-18T03:31:24.456Z,0.50
2023-03-18T03:36:40.150Z,0.50
2023-03-18T03:41:56.019Z,0.60
2023-03-18T03:47:11.533Z,0.70
2023-03-18T03:52:29.070Z,0.50
2023-03-18T03:57:46.195Z,0.40
2023-03-18T04:03:01.883Z,0.30
2023-03-18T04:08:17.737Z,0.30
2023-03-18T04:13:34.406Z,0.30
2023-03-18T04:18:50.360Z,0.30
2023-03-18T04:24:06.828Z,0.10
2023-03-18T04:29:23.165Z,0.30
2023-03-18T04:34:38.903Z,0.40
2023-03-18T04:39:54.610Z,0.20
2023-03-18T04:45:11.118Z,0.10
2023-03-18T04:50:28.122Z,0.00
2023-03-18T04:55:44.607Z,0.10
2023-03-18T05:01:00.746Z,0.00
2023-03-18T05:06:30.344Z,0.00
2023-03-18T05:11:46.382Z,0.00
2023-03-18T05:17:04.636Z,0.00
2023-03-18T05:22:22.324Z,0.10
2023-03-18T05:27:39.001Z,0.10
2023-03-18T05:32:55.356Z,0.20
2023-03-18T05:38:11.531Z,0.50
2023-03-18T05:43:28.627Z,0.50
2023-03-18T05:48:44.421Z,0.30
2023-03-18T05:53:59.960Z,0.10
2023-03-18T05:59:16.390Z,0.30
2023-03-18T06:04:32.340Z,0.70
2023-03-18T06:09:47.846Z,0.90
2023-03-18T06:15:03.990Z,1.10
2023-03-18T06:20:19.756Z,1.40
2023-03-18T06:25:35.697Z,1.30
2023-03-18T06:30:55.566Z,1.80
2023-03-18T06:36:11.883Z,2.10
2023-03-18T06:41:28.348Z,2.40
2023-03-18T06:46:44.442Z,3.30
2023-03-18T06:52:00.515Z,5.30
2023-03-18T06:57:16.243Z,8.40
2023-03-18T07:02:32.135Z,11.30
2023-03-18T07:07:48.748Z,13.60
2023-03-18T07:13:05.237Z,12.20
2023-03-18T07:18:22.041Z,11.40
2023-03-18T07:23:39.287Z,10.00
2023-03-18T07:28:54.861Z,9.30
2023-03-18T07:34:11.980Z,11.20
2023-03-18T07:39:27.797Z,12.60
2023-03-18T07:44:43.215Z,11.20
2023-03-18T07:49:59.406Z,11.70
2023-03-18T07:55:15.716Z,12.90
2023-03-18T08:00:32.569Z,12.60
2023-03-18T08:05:48.494Z,12.50
2023-03-18T08:11:05.123Z,11.60
2023-03-18T08:16:21.097Z,13.40
2023-03-18T08:21:37.062Z,12.40
2023-03-18T08:26:53.226Z,12.80
2023-03-18T08:32:10.167Z,12.90
2023-03-18T08:37:26.312Z,12.40
2023-03-18T08:42:42.142Z,12.80
2023-03-18T08:47:57.995Z,12.70
2023-03-18T08:53:14.023Z,13.30
2023-03-18T08:58:31.461Z,13.60
2023-03-18T09:03:47.503Z,14.30
2023-03-18T09:09:03.656Z,14.50
2023-03-18T09:14:20.060Z,13.30
2023-03-18T09:19:36.919Z,13.60
2023-03-18T09:24:52.755Z,13.50
2023-03-18T09:30:09.672Z,13.30
2023-03-18T09:35:25.596Z,13.30
2023-03-18T09:41:04.252Z,13.80
2023-03-18T09:46:38.653Z,13.90
2023-03-18T09:52:18.477Z,13.00
2023-03-18T09:57:42.972Z,13.10
2023-03-18T10:03:07.067Z,12.90
2023-03-18T10:08:44.380Z,13.00
2023-03-18T10:14:09.444Z,13.70
2023-03-18T10:19:25.565Z,13.70
2023-03-18T10:25:01.712Z,13.80
2023-03-18T10:30:35.332Z,14.00
2023-03-18T10:36:31.627Z,14.50
2023-03-18T10:41:51.709Z,14.20
2023-03-18T10:47:13.537Z,14.00
2023-03-18T10:52:45.693Z,14.20
2023-03-18T10:58:14.991Z,13.70
2023-03-18T11:03:56.726Z,13.60
2023-03-18T11:09:21.117Z,13.50
2023-03-18T11:14:38.036Z,13.40
2023-03-18T11:20:11.142Z,13.30
2023-03-18T11:25:29.415Z,13.30
2023-03-18T11:30:48.769Z,13.00
2023-03-18T11:36:13.586Z,12.70
2023-03-18T11:41:32.446Z,12.70
2023-03-18T11:46:51.361Z,13.10
2023-03-18T11:52:33.782Z,13.10
2023-03-18T11:57:55.705Z,13.20
2023-03-18T12:03:33.412Z,13.10
2023-03-18T12:09:08.637Z,13.00
2023-03-18T12:14:47.446Z,13.20
2023-03-18T12:20:25.790Z,13.30
2023-03-18T12:25:52.379Z,13.40
2023-03-18T12:31:36.808Z,13.30
2023-03-18T12:37:14.233Z,13.20
2023-03-18T12:42:50.087Z,13.10
2023-03-18T12:48:17.714Z,13.00
2023-03-18T12:53:45.859Z,13.10
2023-03-18T12:59:28.027Z,13.20
2023-03-18T13:04:57.022Z,13.20
2023-03-18T13:10:23.614Z,13.40
2023-03-18T13:15:52.919Z,13.20
2023-03-18T13:21:13.664Z,13.20
2023-03-18T13:26:57.174Z,13.30
2023-03-18T13:32:42.987Z,13.30
2023-03-18T13:38:13.431Z,13.60
2023-03-18T13:43:32.413Z,13.60
2023-03-18T13:48:50.149Z,13.50
2023-03-18T13:54:13.325Z,13.20
2023-03-18T13:59:49.895Z,13.20
2023-03-18T14:05:40.714Z,13.60
2023-03-18T14:11:23.260Z,13.70
2023-03-18T14:16:42.481Z,13.30
2023-03-18T14:22:28.634Z,13.40
2023-03-18T14:28:06.966Z,13.60
2023-03-18T14:33:22.910Z,13.50
2023-03-18T14:39:02.270Z,13.60
2023-03-18T14:44:53.623Z,13.90
2023-03-18T14:50:28.842Z,13.90
2023-03-18T14:55:45.212Z,13.90
2023-03-18T15:01:10.023Z,13.80
2023-03-18T15:06:29.400Z,13.90
2023-03-18T15:11:48.003Z,13.70
2023-03-18T15:17:12.712Z,13.60
2023-03-18T15:22:31.822Z,13.80
2023-03-18T15:27:48.724Z,13.90
2023-03-18T15:33:18.239Z,13.80
2023-03-18T15:38:34.414Z,13.70
2023-03-18T15:43:52.244Z,13.70
2023-03-18T15:49:12.400Z,13.70
2023-03-18T15:54:31.285Z,13.60
2023-03-18T15:59:47.055Z,13.50
2023-03-18T16:05:20.593Z,13.30
2023-03-18T16:10:36.254Z,13.20
2023-03-18T16:15:53.536Z,13.30
2023-03-18T16:21:13.506Z,13.50
2023-03-18T16:26:29.103Z,13.50
2023-03-18T16:31:46.219Z,13.40
2023-03-18T16:37:01.959Z,13.20
2023-03-18T16:42:18.057Z,13.10
2023-03-18T16:47:34.099Z,12.80
2023-03-18T16:52:50.624Z,12.40
2023-03-18T16:58:07.059Z,12.00
2023-03-18T17:03:23.388Z,11.90
2023-03-18T17:08:40.264Z,11.50
2023-03-18T17:13:56.495Z,11.10
2023-03-18T17:19:16.750Z,11.00
2023-03-18T17:24:32.575Z,10.90
2023-03-18T17:29:48.896Z,11.50
2023-03-18T17:35:13.532Z,11.00
2023-03-18T17:40:30.498Z,10.80
2023-03-18T17:45:47.141Z,10.80
2023-03-18T17:51:07.456Z,10.60
2023-03-18T17:56:23.492Z,10.60
2023-03-18T18:01:39.617Z,10.30
2023-03-18T18:06:55.608Z,9.90
2023-03-18T18:12:25.508Z,9.60
2023-03-18T18:17:41.708Z,9.20
2023-03-18T18:22:57.893Z,8.90
2023-03-18T18:28:21.929Z,8.60
2023-03-18T18:33:39.921Z,8.50
2023-03-18T18:38:55.575Z,8.40
2023-03-18T18:44:12.085Z,8.20
2023-03-18T18:49:29.238Z,8.10
2023-03-18T18:54:45.462Z,7.90
2023-03-18T19:00:01.188Z,7.70
2023-03-18T19:05:18.801Z,7.50
2023-03-18T19:10:34.797Z,7.40
2023-03-18T19:15:56.305Z,7.30
2023-03-18T19:21:12.286Z,7.20
2023-03-18T19:26:28.280Z,7.10
2023-03-18T19:31:44.978Z,7.00
2023-03-18T19:37:03.050Z,6.90
2023-03-18T19:42:19.165Z,6.90
2023-03-18T19:47:34.906Z,6.70
2023-03-18T19:52:51.171Z,6.60
2023-03-18T19:58:37.705Z,6.50
2023-03-18T20:03:57.770Z,6.40
2023-03-18T20:09:15.138Z,6.30
2023-03-18T20:14:38.290Z,6.20
2023-03-18T20:19:54.110Z,6.20
2023-03-18T20:25:21.093Z,6.10
2023-03-18T20:30:39.263Z,6.00
2023-03-18T20:35:55.030Z,5.90
2023-03-18T20:41:20.225Z,5.80
2023-03-18T20:46:36.784Z,5.80
2023-03-18T20:51:52.721Z,5.60
2023-03-18T20:57:13.092Z,5.40
2023-03-18T21:02:36.402Z,5.40
2023-03-18T21:07:52.823Z,5.40
2023-03-18T21:13:31.039Z,5.40
2023-03-18T21:18:47.765Z,5.10
2023-03-18T21:24:14.742Z,5.00
2023-03-18T21:29:30.846Z,4.90
2023-03-18T21:34:46.853Z,4.90
2023-03-18T21:40:02.733Z,4.90
2023-03-18T21:45:23.049Z,4.80
2023-03-18T21:50:39.919Z,4.80
2023-03-18T21:55:55.997Z,4.80
2023-03-18T22:01:24.535Z,4.60
2023-03-18T22:06:40.517Z,4.50
2023-03-18T22:11:57.607Z,4.40
2023-03-18T22:17:34.548Z,4.30
2023-03-18T22:22:50.356Z,4.30
2023-03-18T22:28:06.329Z,4.30
2023-03-18T22:33:26.825Z,4.10
2023-03-18T22:38:43.327Z,4.10
2023-03-18T22:44:00.468Z,4.20
2023-03-18T22:49:16.427Z,4.20
2023-03-18T22:54:32.287Z,4.00
2023-03-18T22:59:48.328Z,3.90
2023-03-18T23:05:04.363Z,4.00
2023-03-18T23:10:21.240Z,3.70
2023-03-18T23:15:37.201Z,3.70
2023-03-18T23:20:53.285Z,3.70
2023-03-18T23:26:08.868Z,3.70
2023-03-18T23:31:24.889Z,3.70
2023-03-18T23:36:40.542Z,3.60
2023-03-18T23:41:56.169Z,3.70
2023-03-18T23:47:14.004Z,3.70
2023-03-18T23:52:29.669Z,3.70
2023-03-18T23:57:45.533Z,3.60
